createdAt,value
2023-04-16T00:00:28.449Z,4.75
2023-04-16T00:05:30.769Z,4.80
2023-04-16T00:10:32.977Z,5.32
2023-04-16T00:15:35.043Z,4.88
2023-04-16T00:20:37.169Z,4.47
2023-04-16T00:30:41.402Z,5.45
2023-04-16T00:35:46.782Z,7.93
2023-04-16T00:40:49.122Z,6.78
2023-04-16T00:45:52.863Z,3.92
2023-04-16T00:50:55.657Z,4.70
2023-04-16T00:55:58.097Z,4.63
2023-04-16T01:01:00.652Z,4.95
2023-04-16T01:06:03.146Z,5.20
2023-04-16T01:11:06.232Z,4.57
2023-04-16T01:16:10.823Z,5.00
2023-04-16T01:21:13.217Z,4.88
2023-04-16T01:26:15.622Z,4.95
2023-04-16T01:31:17.750Z,6.80
2023-04-16T01:36:35.568Z,5.43
2023-04-16T01:41:37.718Z,5.50
2023-04-16T01:46:40.031Z,4.45
2023-04-16T01:51:42.324Z,5.13
2023-04-16T01:56:45.605Z,5.25
2023-04-16T02:01:47.779Z,4.70
2023-04-16T02:06:50.126Z,4.80
2023-04-16T02:11:52.179Z,4.55
2023-04-16T02:16:54.486Z,4.78
2023-04-16T02:22:10.665Z,4.57
2023-04-16T02:27:12.777Z,4.85
2023-04-16T02:32:18.524Z,5.60
2023-04-16T02:37:22.143Z,5.15
2023-04-16T02:42:25.169Z,5.45
2023-04-16T02:47:27.413Z,5.55
2023-04-16T02:52:29.618Z,4.75
2023-04-16T02:57:31.801Z,5.85
2023-04-16T03:02:34.078Z,5.68
2023-04-16T03:07:36.365Z,4.78
2023-04-16T03:12:39.313Z,4.75
2023-04-16T03:17:42.306Z,4.85
2023-04-16T03:22:44.941Z,5.65
2023-04-16T03:27:48.257Z,5.05
2023-04-16T03:32:52.143Z,3.67
2023-04-16T03:37:54.469Z,4.70
2023-04-16T03:42:56.736Z,4.45
2023-04-16T03:47:58.990Z,4.35
2023-04-16T03:53:01.704Z,4.50
2023-04-16T03:58:05.069Z,4.85
2023-04-16T04:03:08.467Z,4.35
2023-04-16T04:08:11.257Z,3.88
2023-04-16T04:13:13.642Z,3.38
2023-04-16T04:18:16.568Z,3.90
2023-04-16T04:23:19.382Z,4.18
2023-04-16T04:28:22.516Z,4.20
2023-04-16T04:33:25.706Z,3.70
2023-04-16T04:38:27.960Z,3.75
2023-04-16T04:43:30.189Z,3.67
2023-04-16T04:48:32.320Z,4.05
2023-04-16T04:53:35.051Z,4.03
2023-04-16T04:58:37.267Z,4.03
2023-04-16T05:03:39.716Z,4.50
2023-04-16T05:08:41.898Z,4.15
2023-04-16T05:18:46.123Z,3.20
2023-04-16T05:23:48.381Z,3.75
2023-04-16T05:28:50.587Z,3.33
2023-04-16T05:33:52.789Z,3.60
2023-04-16T05:38:55.074Z,3.47
2023-04-16T05:48:59.531Z,3.75
2023-04-16T05:54:01.879Z,3.80
2023-04-16T06:04:06.314Z,3.13
2023-04-16T06:09:08.902Z,3.30
2023-04-16T06:14:11.328Z,3.40
2023-04-16T06:19:13.412Z,3.58
2023-04-16T06:24:15.639Z,3.90
2023-04-16T06:29:17.780Z,4.18
2023-04-16T06:34:19.950Z,3.00
2023-04-16T06:39:22.086Z,2.83
2023-04-16T06:44:24.282Z,2.92
2023-04-16T06:49:26.434Z,2.97
2023-04-16T06:54:28.647Z,2.55
2023-04-16T06:59:30.996Z,3.00
2023-04-16T07:04:33.069Z,3.20
2023-04-16T07:09:35.409Z,3.15
2023-04-16T07:14:37.606Z,2.85
2023-04-16T07:19:39.684Z,2.65
2023-04-16T07:24:41.935Z,3.10
2023-04-16T07:29:45.765Z,3.00
2023-04-16T07:34:48.018Z,2.70
2023-04-16T07:39:50.129Z,3.17
2023-04-16T07:44:52.287Z,3.05
2023-04-16T07:49:54.436Z,3.05
2023-04-16T07:54:56.623Z,3.40
2023-04-16T07:59:58.852Z,2.67
2023-04-16T08:05:01.083Z,3.72
2023-04-16T08:10:03.390Z,3.22
2023-04-16T08:15:08.482Z,2.75
2023-04-16T08:20:13.024Z,2.95
2023-04-16T08:25:17.254Z,3.10
2023-04-16T08:30:19.686Z,2.72
2023-04-16T08:35:21.900Z,3.22
2023-04-16T08:40:28.769Z,2.75
2023-04-16T08:45:35.141Z,2.92
2023-04-16T08:50:37.666Z,2.55
2023-04-16T08:55:43.722Z,2.58
2023-04-16T09:00:46.503Z,2.95
2023-04-16T09:05:49.749Z,2.10
2023-04-16T09:10:52.034Z,2.45
2023-04-16T09:15:54.751Z,2.25
2023-04-16T09:20:57.331Z,2.72
2023-04-16T09:25:59.890Z,2.60
2023-04-16T09:31:09.378Z,1.63
2023-04-16T09:36:11.705Z,1.88
2023-04-16T09:41:16.410Z,2.70
2023-04-16T09:46:18.670Z,2.30
2023-04-16T09:51:20.952Z,2.33
2023-04-16T09:56:30.446Z,2.70
2023-04-16T10:01:32.954Z,2.58
2023-04-16T10:06:35.086Z,2.47
2023-04-16T10:11:37.870Z,3.00
2023-04-16T10:16:41.254Z,4.18
2023-04-16T10:21:43.550Z,3.40
2023-04-16T10:26:47.014Z,3.10
2023-04-16T10:31:50.566Z,3.53
2023-04-16T10:36:54.705Z,2.83
2023-04-16T10:42:13.414Z,3.13
2023-04-16T10:47:15.770Z,2.90
2023-04-16T10:52:18.068Z,2.65
2023-04-16T10:57:20.758Z,3.13
2023-04-16T11:02:29.234Z,3.17
2023-04-16T11:07:35.328Z,2.63
2023-04-16T11:12:39.899Z,2.88
2023-04-16T11:17:48.416Z,2.92
2023-04-16T11:22:52.135Z,2.83
2023-04-16T11:27:54.903Z,2.70
2023-04-16T11:32:57.335Z,3.38
2023-04-16T11:37:59.733Z,3.20
2023-04-16T11:43:04.064Z,2.80
2023-04-16T11:48:07.314Z,2.83
2023-04-16T11:53:10.393Z,3.42
2023-04-16T11:58:16.612Z,3.28
2023-04-16T12:03:37.657Z,2.80
2023-04-16T12:08:40.078Z,2.90
2023-04-16T12:13:42.194Z,3.38
2023-04-16T12:19:01.408Z,4.43
2023-04-16T12:24:03.852Z,3.70
2023-04-16T12:29:26.021Z,3.78
2023-04-16T12:34:46.587Z,3.70
2023-04-16T12:39:50.188Z,3.47
2023-04-16T12:44:52.305Z,3.60
2023-04-16T12:49:54.348Z,3.08
2023-04-16T12:54:56.531Z,2.88
2023-04-16T12:59:59.006Z,3.05
2023-04-16T13:05:01.651Z,2.72
2023-04-16T13:10:06.651Z,2.65
2023-04-16T13:15:09.606Z,3.55
2023-04-16T13:20:11.956Z,2.80
2023-04-16T13:25:14.203Z,2.85
2023-04-16T13:30:16.491Z,2.70
2023-04-16T13:35:18.761Z,2.95
2023-04-16T13:40:21.148Z,3.47
2023-04-16T13:45:23.387Z,3.53
2023-04-16T13:50:25.591Z,3.20
2023-04-16T13:55:27.961Z,3.60
2023-04-16T14:00:30.192Z,3.17
2023-04-16T14:05:32.372Z,3.17
2023-04-16T14:10:35.257Z,2.85
2023-04-16T14:15:37.399Z,2.80
2023-04-16T14:20:40.131Z,3.10
2023-04-16T14:25:42.221Z,3.00
2023-04-16T14:30:44.438Z,3.20
2023-04-16T14:35:46.718Z,3.08
2023-04-16T14:40:49.114Z,3.25
2023-04-16T14:45:51.319Z,2.88
2023-04-16T14:50:54.032Z,2.15
2023-04-16T14:55:59.094Z,3.20
2023-04-16T15:01:01.371Z,2.67
2023-04-16T15:06:03.634Z,3.03
2023-04-16T15:11:05.894Z,2.53
2023-04-16T15:16:08.103Z,3.13
2023-04-16T15:21:12.400Z,2.67
2023-04-16T15:26:15.009Z,2.63
2023-04-16T15:31:17.152Z,2.83
2023-04-16T15:36:20.010Z,2.42
2023-04-16T15:41:22.574Z,2.90
2023-04-16T15:46:24.770Z,2.63
2023-04-16T15:51:29.420Z,3.25
2023-04-16T15:56:31.734Z,2.85
2023-04-16T16:01:33.960Z,3.00
2023-04-16T16:06:41.892Z,2.40
2023-04-16T16:11:44.052Z,2.70
2023-04-16T16:16:46.271Z,2.08
2023-04-16T16:21:48.424Z,2.63
2023-04-16T16:26:50.761Z,2.58
2023-04-16T16:31:53.032Z,2.40
2023-04-16T16:36:55.180Z,2.30
2023-04-16T16:41:57.613Z,2.47
2023-04-16T16:46:59.925Z,2.78
2023-04-16T16:52:02.177Z,2.70
2023-04-16T16:57:04.286Z,3.13
2023-04-16T17:07:08.842Z,4.38
2023-04-16T17:12:11.274Z,4.38
2023-04-16T17:17:13.376Z,4.45
2023-04-16T17:27:18.139Z,5.22
2023-04-16T17:32:20.472Z,4.97
2023-04-16T17:37:23.642Z,4.75
2023-04-16T17:42:25.869Z,5.55
2023-04-16T17:47:28.151Z,4.85
2023-04-16T17:52:30.665Z,5.18
2023-04-16T17:57:32.921Z,5.03
2023-04-16T18:02:35.315Z,6.35
2023-04-16T18:07:39.098Z,5.68
2023-04-16T18:12:41.256Z,5.65
2023-04-16T18:17:43.554Z,5.25
2023-04-16T18:22:46.341Z,5.63
2023-04-16T18:27:48.403Z,5.75
2023-04-16T18:38:13.741Z,4.93
2023-04-16T18:43:16.310Z,6.05
2023-04-16T18:48:18.386Z,6.07
2023-04-16T18:58:23.454Z,6.53
2023-04-16T19:08:29.556Z,6.45
2023-04-16T19:18:34.486Z,6.97
2023-04-16T19:28:38.932Z,6.75
2023-04-16T19:33:41.713Z,7.00
2023-04-16T19:38:43.921Z,7.60
2023-04-16T19:43:46.213Z,7.05
2023-04-16T19:48:48.399Z,7.25
2023-04-16T19:53:50.660Z,7.40
2023-04-16T19:58:52.901Z,7.47
2023-04-16T20:08:57.458Z,7.72
2023-04-16T20:14:01.030Z,8.05
2023-04-16T20:19:08.578Z,7.95
2023-04-16T20:24:11.222Z,8.02
2023-04-16T20:29:13.397Z,7.65
2023-04-16T20:34:15.714Z,7.03
2023-04-16T20:39:20.497Z,7.18
2023-04-16T20:44:33.273Z,8.35
2023-04-16T20:49:35.836Z,7.97
2023-04-16T20:54:38.005Z,7.68
2023-04-16T20:59:40.188Z,6.97
2023-04-16T21:04:42.535Z,7.47
2023-04-16T21:09:44.884Z,7.47
2023-04-16T21:19:49.376Z,7.07
2023-04-16T21:24:51.585Z,6.30
2023-04-16T21:34:55.869Z,7.13
2023-04-16T21:39:58.083Z,6.75
2023-04-16T21:50:02.184Z,6.93
2023-04-16T21:55:08.891Z,6.38
2023-04-16T22:00:13.980Z,7.25
2023-04-16T22:05:16.388Z,7.32
2023-04-16T22:10:19.001Z,7.13
2023-04-16T22:15:22.687Z,6.25
2023-04-16T22:20:24.980Z,6.55
2023-04-16T22:30:29.104Z,6.50
2023-04-16T22:35:31.526Z,6.50
2023-04-16T22:40:33.786Z,6.50
2023-04-16T22:45:37.519Z,6.45
2023-04-16T22:50:40.698Z,6.47
2023-04-16T22:55:42.779Z,6.40
2023-04-16T23:05:47.027Z,6.43
2023-04-16T23:10:49.185Z,6.68
2023-04-16T23:15:51.550Z,6.75
2023-04-16T23:20:53.947Z,6.32
2023-04-16T23:25:56.129Z,5.63
2023-04-16T23:30:58.247Z,6.63
2023-04-16T23:41:02.610Z,5.72
2023-04-16T23:51:06.814Z,5.63
